Time;durP1;ratioP1;P1;durP2;ratioP2;P2;SDS_P1;SDS_P2;PMS_P1;PMS_P2;Temp;Humidity;BMP_temperature;BMP_pressure;BME280_temperature;BME280_humidity;BME280_pressure;Samples;Min_cycle;Max_cycle;Signal;HPM_P1;HPM_P2
2021/11/09 00:01:51;;;;;;;24.30;8.70;;;;;;;;;;5032664;28;20075;-82
2021/11/09 00:04:17;;;;;;;27.53;9.77;;;;;;;;;;5031175;28;20025;-82
2021/11/09 00:06:47;;;;;;;20.23;7.97;;;;;;;;;;5064358;28;20500;-82
2021/11/09 00:09:17;;;;;;;22.37;8.17;;;;;;;;;;5030912;28;20029;-82
2021/11/09 00:11:42;;;;;;;24.57;8.50;;;;;;;;;;5032417;28;20021;-82
2021/11/09 00:14:08;;;;;;;23.93;8.40;;;;;;;;;;5032378;28;20393;-81
2021/11/09 00:16:33;;;;;;;21.40;8.43;;;;;;;;;;5032448;28;20493;-82
2021/11/09 00:18:59;;;;;;;28.27;9.97;;;;;;;;;;5064150;28;20029;-82
2021/11/09 00:21:25;;;;;;;27.63;9.00;;;;;;;;;;5032549;28;20025;-82
2021/11/09 00:23:50;;;;;;;24.17;9.60;;;;;;;;;;5063764;28;20116;-83
2021/11/09 00:26:17;;;;;;;29.03;9.77;;;;;;;;;;5032083;28;20064;-82
2021/11/09 00:28:42;;;;;;;25.13;10.07;;;;;;;;;;5047349;28;20024;-82
2021/11/09 00:31:08;;;;;;;29.73;10.00;;;;;;;;;;5030815;28;20022;-82
2021/11/09 00:33:33;;;;;;;26.83;9.83;;;;;;;;;;5026008;28;20033;-82
2021/11/09 00:35:59;;;;;;;21.13;8.47;;;;;;;;;;5063919;28;20074;-82
2021/11/09 00:38:24;;;;;;;22.57;8.97;;;;;;;;;;5030766;28;20079;-82
2021/11/09 00:40:49;;;;;;;32.03;10.43;;;;;;;;;;5064216;28;20365;-82
2021/11/09 00:43:16;;;;;;;28.20;10.90;;;;;;;;;;5031685;28;20033;-83
2021/11/09 00:45:42;;;;;;;35.07;10.90;;;;;;;;;;5034838;28;20390;-82
2021/11/09 00:48:07;;;;;;;31.77;11.53;;;;;;;;;;5036083;28;20021;-82
2021/11/09 00:50:34;;;;;;;25.97;10.67;;;;;;;;;;5035222;28;20026;-82
2021/11/09 00:53:00;;;;;;;30.90;10.30;;;;;;;;;;5034851;28;20172;-82
2021/11/09 00:55:25;;;;;;;27.60;10.37;;;;;;;;;;5034897;28;20105;-82
2021/11/09 00:57:51;;;;;;;32.37;10.60;;;;;;;;;;5034626;28;20104;-83
2021/11/09 01:00:19;;;;;;;34.33;10.50;;;;;;;;;;5034129;28;20025;-83
2021/11/09 01:02:45;;;;;;;21.03;8.60;;;;;;;;;;5034534;28;20044;-83
2021/11/09 01:05:11;;;;;;;29.87;10.17;;;;;;;;;;5067920;28;20025;-82
2021/11/09 01:07:36;;;;;;;25.73;8.70;;;;;;;;;;5035778;28;20056;-82
2021/11/09 01:10:03;;;;;;;28.57;8.90;;;;;;;;;;5035823;28;20021;-82
2021/11/09 01:12:28;;;;;;;24.40;9.43;;;;;;;;;;5034185;28;20403;-83
2021/11/09 01:14:54;;;;;;;28.70;9.50;;;;;;;;;;5067734;28;20112;-82
2021/11/09 01:17:19;;;;;;;25.17;9.03;;;;;;;;;;5068018;28;20025;-83
2021/11/09 01:19:44;;;;;;;24.33;8.30;;;;;;;;;;5051530;28;20055;-82
2021/11/09 01:22:10;;;;;;;22.90;8.87;;;;;;;;;;5067907;28;20029;-83
2021/11/09 01:24:36;;;;;;;19.50;8.83;;;;;;;;;;5034478;28;20029;-83
2021/11/09 01:27:01;;;;;;;19.17;8.83;;;;;;;;;;5067345;28;20047;-82
2021/11/09 01:29:28;;;;;;;18.13;8.30;;;;;;;;;;5033894;28;20021;-82
2021/11/09 01:31:54;;;;;;;26.87;8.90;;;;;;;;;;5034368;28;20021;-83
2021/11/09 01:34:20;;;;;;;24.20;9.27;;;;;;;;;;5033861;28;20524;-83
2021/11/09 01:36:45;;;;;;;20.37;9.10;;;;;;;;;;5035289;28;20029;-83
2021/11/09 01:39:11;;;;;;;22.97;8.90;;;;;;;;;;5067288;28;20116;-82
2021/11/09 01:41:36;;;;;;;23.80;8.40;;;;;;;;;;5033717;28;20459;-82
2021/11/09 01:44:02;;;;;;;25.37;8.10;;;;;;;;;;5066891;28;20026;-83
2021/11/09 01:46:27;;;;;;;27.83;9.43;;;;;;;;;;5067060;28;20401;-82
2021/11/09 01:48:53;;;;;;;33.10;10.20;;;;;;;;;;5035098;28;20028;-83
2021/11/09 01:51:19;;;;;;;33.97;10.93;;;;;;;;;;5033463;28;20460;-83
2021/11/09 01:53:45;;;;;;;27.43;10.23;;;;;;;;;;5034060;28;20068;-83
2021/11/09 01:56:12;;;;;;;21.77;8.57;;;;;;;;;;5033647;28;20026;-83
2021/11/09 01:58:38;;;;;;;17.00;8.47;;;;;;;;;;5033638;28;20083;-82
2021/11/09 02:01:06;;;;;;;21.57;9.00;;;;;;;;;;5050268;28;20061;-83
2021/11/09 02:03:32;;;;;;;28.17;10.27;;;;;;;;;;5033596;28;20017;-82
2021/11/09 02:05:57;;;;;;;28.40;9.90;;;;;;;;;;5034489;28;20400;-82
2021/11/09 02:08:24;;;;;;;30.63;10.27;;;;;;;;;;5066804;28;20479;-82
2021/11/09 02:10:50;;;;;;;26.70;10.77;;;;;;;;;;5033690;28;20025;-83
2021/11/09 02:13:17;;;;;;;32.70;10.77;;;;;;;;;;5033153;28;20410;-83
2021/11/09 02:15:42;;;;;;;33.17;9.70;;;;;;;;;;5033155;28;20030;-82
2021/11/09 02:18:08;;;;;;;26.53;9.17;;;;;;;;;;5033192;28;20031;-83
2021/11/09 02:20:34;;;;;;;17.57;7.97;;;;;;;;;;5066663;28;20025;-83
2021/11/09 02:23:00;;;;;;;16.90;8.27;;;;;;;;;;5033082;28;20017;-83
2021/11/09 02:25:26;;;;;;;22.30;9.70;;;;;;;;;;5066329;28;20017;-82
2021/11/09 02:27:51;;;;;;;22.40;9.00;;;;;;;;;;5034514;28;20025;-83
2021/11/09 02:30:20;;;;;;;28.67;9.07;;;;;;;;;;5030824;28;20370;-83
2021/11/09 02:32:46;;;;;;;27.37;8.90;;;;;;;;;;5061524;28;20447;-82
2021/11/09 02:35:13;;;;;;;21.67;9.10;;;;;;;;;;5066351;28;20017;-83
2021/11/09 02:37:38;;;;;;;18.47;8.43;;;;;;;;;;5065999;28;20025;-83
2021/11/09 02:40:05;;;;;;;28.40;9.63;;;;;;;;;;5033875;28;20017;-83
2021/11/09 02:42:32;;;;;;;28.50;9.63;;;;;;;;;;5032579;28;20017;-83
2021/11/09 02:45:05;;;;;;;23.90;8.73;;;;;;;;;;5066355;28;20017;-83
2021/11/09 02:47:42;;;;;;;24.03;9.00;;;;;;;;;;5066038;28;20350;-82
2021/11/09 02:50:10;;;;;;;22.23;8.13;;;;;;;;;;5026857;28;20087;-83
2021/11/09 02:52:44;;;;;;;17.07;7.80;;;;;;;;;;5032650;28;20033;-83
2021/11/09 02:55:12;;;;;;;17.40;7.80;;;;;;;;;;5060444;28;20112;-83
2021/11/09 02:57:51;;;;;;;18.07;8.53;;;;;;;;;;5065848;28;20473;-82
2021/11/09 03:02:48;;;;;;;27.97;9.13;;;;;;;;;;5033683;28;20021;-82
2021/11/09 03:08:04;;;;;;;20.20;8.93;;;;;;;;;;5033873;28;20029;-82
2021/11/09 03:10:38;;;;;;;26.15;9.13;;;;;;;;;;5065559;28;20112;-82
2021/11/09 03:13:04;;;;;;;29.27;10.23;;;;;;;;;;5032529;28;20080;-83
2021/11/09 03:15:32;;;;;;;24.93;9.63;;;;;;;;;;5033223;28;20013;-83
2021/11/09 03:18:04;;;;;;;24.97;9.93;;;;;;;;;;5032784;28;20032;-83
2021/11/09 03:20:46;;;;;;;29.93;10.00;;;;;;;;;;5033474;28;20021;-83
2021/11/09 03:45:08;;;;;;;20.97;7.80;;;;;;;;;;5032701;28;20032;-83
2021/11/09 03:47:37;;;;;;;32.30;10.30;;;;;;;;;;5031467;28;20354;-83
2021/11/09 03:50:04;;;;;;;25.17;9.17;;;;;;;;;;5031637;28;20536;-83
2021/11/09 03:52:38;;;;;;;23.37;8.97;;;;;;;;;;5032790;28;20087;-82
2021/11/09 03:55:04;;;;;;;20.43;9.33;;;;;;;;;;5064769;28;20112;-83
2021/11/09 03:57:37;;;;;;;29.23;8.70;;;;;;;;;;5032644;28;20021;-83
2021/11/09 04:00:12;;;;;;;21.87;8.30;;;;;;;;;;5030081;28;20480;-82
2021/11/09 04:05:12;;;;;;;24.23;9.10;;;;;;;;;;5032783;28;20469;-83
2021/11/09 04:07:45;;;;;;;27.67;10.20;;;;;;;;;;5031462;28;20018;-83
2021/11/09 04:31:06;;;;;;;26.07;9.10;;;;;;;;;;5027924;28;20105;-83
2021/11/09 04:39:30;;;;;;;30.73;8.83;;;;;;;;;;5032403;28;20025;-83
2021/11/09 04:50:51;;;;;;;28.60;9.67;;;;;;;;;;5032063;28;20492;-82
2021/11/09 05:09:25;;;;;;;22.57;7.43;;;;;;;;;;5032261;28;20484;-83
2021/11/09 05:11:50;;;;;;;22.63;7.87;;;;;;;;;;5064010;28;20026;-83
2021/11/09 05:14:16;;;;;;;21.50;9.07;;;;;;;;;;5030615;28;20424;-83
2021/11/09 05:16:41;;;;;;;26.80;8.87;;;;;;;;;;5030623;28;20021;-83
2021/11/09 05:19:07;;;;;;;25.73;8.50;;;;;;;;;;5032015;28;20103;-83
2021/11/09 05:21:32;;;;;;;22.00;8.37;;;;;;;;;;5030157;28;20532;-82
2021/11/09 05:23:58;;;;;;;19.50;7.47;;;;;;;;;;5063854;28;20021;-83
2021/11/09 05:26:23;;;;;;;21.57;8.53;;;;;;;;;;5031737;28;20014;-83
2021/11/09 05:28:49;;;;;;;22.67;8.27;;;;;;;;;;5030721;28;20022;-83
2021/11/09 05:31:15;;;;;;;22.13;8.10;;;;;;;;;;5034004;28;20444;-83
2021/11/09 05:33:40;;;;;;;24.67;7.97;;;;;;;;;;5035464;28;20425;-83
2021/11/09 05:36:07;;;;;;;21.67;8.17;;;;;;;;;;5034387;28;20365;-83
2021/11/09 05:38:44;;;;;;;18.43;8.20;;;;;;;;;;5034926;28;20030;-83
2021/11/09 05:41:11;;;;;;;27.17;9.20;;;;;;;;;;5067439;28;20036;-83
2021/11/09 05:43:36;;;;;;;27.40;9.03;;;;;;;;;;5033866;28;20519;-82
2021/11/09 05:46:02;;;;;;;23.67;8.63;;;;;;;;;;5035318;28;20057;-83
2021/11/09 05:48:27;;;;;;;28.40;8.83;;;;;;;;;;5067110;28;20104;-82
2021/11/09 05:50:53;;;;;;;24.47;8.23;;;;;;;;;;5033977;28;20064;-82
2021/11/09 05:53:18;;;;;;;21.63;8.67;;;;;;;;;;5033943;28;20389;-83
2021/11/09 05:55:43;;;;;;;25.07;8.90;;;;;;;;;;5034969;28;20014;-83
2021/11/09 05:58:09;;;;;;;26.17;8.87;;;;;;;;;;5035103;28;20021;-83
2021/11/09 06:00:34;;;;;;;24.17;9.10;;;;;;;;;;5034762;28;20527;-83
2021/11/09 06:02:59;;;;;;;24.20;8.67;;;;;;;;;;5066917;28;20136;-83
2021/11/09 06:05:25;;;;;;;28.07;9.60;;;;;;;;;;5066988;28;20116;-82
2021/11/09 06:07:50;;;;;;;20.60;7.60;;;;;;;;;;5034771;28;20026;-82
2021/11/09 06:10:15;;;;;;;20.90;7.50;;;;;;;;;;5066821;28;20500;-83
2021/11/09 06:12:40;;;;;;;14.23;6.60;;;;;;;;;;5067034;28;20021;-83
2021/11/09 06:15:06;;;;;;;18.83;7.50;;;;;;;;;;5033485;28;20148;-83
2021/11/09 06:17:31;;;;;;;21.73;7.53;;;;;;;;;;5033297;28;20029;-83
2021/11/09 06:19:56;;;;;;;27.23;8.00;;;;;;;;;;5066555;28;20021;-83
2021/11/09 06:22:22;;;;;;;19.83;8.03;;;;;;;;;;5066868;28;20433;-83
2021/11/09 06:24:48;;;;;;;21.60;8.40;;;;;;;;;;5034349;28;20091;-83
2021/11/09 06:27:14;;;;;;;21.77;8.30;;;;;;;;;;5066575;28;20465;-83
2021/11/09 06:29:39;;;;;;;20.97;7.93;;;;;;;;;;5033153;28;20048;-83
2021/11/09 06:32:05;;;;;;;24.57;8.00;;;;;;;;;;5066576;28;20447;-83
2021/11/09 06:34:30;;;;;;;19.17;6.80;;;;;;;;;;5033358;28;20033;-83
2021/11/09 06:36:55;;;;;;;16.93;6.50;;;;;;;;;;5032905;28;20025;-83
2021/11/09 06:39:21;;;;;;;17.87;6.53;;;;;;;;;;5034166;28;20021;-83
2021/11/09 06:41:47;;;;;;;17.80;6.73;;;;;;;;;;5065684;28;20056;-83
2021/11/09 06:44:12;;;;;;;16.17;6.50;;;;;;;;;;5032343;28;20060;-83
2021/11/09 06:46:38;;;;;;;18.20;6.77;;;;;;;;;;5032761;28;20021;-83
2021/11/09 06:49:03;;;;;;;20.10;7.70;;;;;;;;;;5032820;28;20694;-83
2021/11/09 06:51:28;;;;;;;21.07;7.00;;;;;;;;;;5066414;28;20018;-84
2021/11/09 06:53:53;;;;;;;23.60;7.70;;;;;;;;;;5033842;28;20469;-83
2021/11/09 06:56:19;;;;;;;24.87;7.73;;;;;;;;;;5033006;28;20029;-83
2021/11/09 06:58:45;;;;;;;22.97;8.00;;;;;;;;;;5033526;28;20453;-83
2021/11/09 07:01:10;;;;;;;19.93;6.57;;;;;;;;;;5032538;28;20017;-83
2021/11/09 07:03:35;;;;;;;19.20;6.93;;;;;;;;;;5065732;28;20037;-84
2021/11/09 07:06:01;;;;;;;20.47;7.20;;;;;;;;;;5032075;28;20049;-84
2021/11/09 07:08:27;;;;;;;22.90;8.00;;;;;;;;;;5028648;28;20021;-84
2021/11/09 07:10:52;;;;;;;21.80;7.53;;;;;;;;;;5031388;28;20365;-83
2021/11/09 07:13:18;;;;;;;22.60;7.53;;;;;;;;;;5032140;28;20028;-84
2021/11/09 07:15:44;;;;;;;20.23;7.67;;;;;;;;;;5032331;28;20067;-84
2021/11/09 07:18:09;;;;;;;16.37;6.77;;;;;;;;;;5031735;28;20049;-84
2021/11/09 07:20:36;;;;;;;16.93;7.33;;;;;;;;;;5065475;28;20029;-83
2021/11/09 07:23:03;;;;;;;24.60;7.50;;;;;;;;;;5030967;28;20036;-83
2021/11/09 07:25:28;;;;;;;21.37;8.07;;;;;;;;;;5064881;28;20384;-84
2021/11/09 07:27:53;;;;;;;20.77;8.10;;;;;;;;;;5031464;28;20018;-83
2021/11/09 07:30:19;;;;;;;24.70;6.93;;;;;;;;;;5032018;28;20086;-84
2021/11/09 07:32:46;;;;;;;19.23;6.73;;;;;;;;;;5031797;28;20009;-84
2021/11/09 07:35:12;;;;;;;17.63;6.47;;;;;;;;;;5031044;28;20112;-84
2021/11/09 07:37:38;;;;;;;13.23;5.97;;;;;;;;;;5065120;28;20017;-84
2021/11/09 07:40:05;;;;;;;14.47;6.40;;;;;;;;;;5031396;28;20730;-84
2021/11/09 07:42:30;;;;;;;20.80;7.90;;;;;;;;;;5031818;28;20028;-84
2021/11/09 07:44:55;;;;;;;21.20;7.00;;;;;;;;;;5047749;28;20013;-85
2021/11/09 07:47:20;;;;;;;18.73;6.80;;;;;;;;;;5031600;28;20022;-84
2021/11/09 07:49:46;;;;;;;18.70;7.50;;;;;;;;;;5031627;28;20121;-84
2021/11/09 07:52:12;;;;;;;23.20;8.60;;;;;;;;;;5064672;28;20029;-84
2021/11/09 07:54:39;;;;;;;19.40;7.73;;;;;;;;;;5031451;28;20033;-84
2021/11/09 07:57:10;;;;;;;23.53;7.37;;;;;;;;;;5065149;28;20112;-84
2021/11/09 07:59:58;;;;;;;23.98;8.13;;;;;;;;;;5031614;28;20029;-84
2021/11/09 08:04:53;;;;;;;22.97;8.17;;;;;;;;;;5032836;28;20087;-84
2021/11/09 08:07:23;;;;;;;21.60;7.93;;;;;;;;;;5064083;28;20048;-85
2021/11/09 08:09:48;;;;;;;26.53;8.70;;;;;;;;;;5030855;28;20024;-85
2021/11/09 08:12:13;;;;;;;22.23;7.90;;;;;;;;;;5064675;28;20520;-84
2021/11/09 08:14:39;;;;;;;27.17;8.77;;;;;;;;;;5031029;28;20060;-84
2021/11/09 08:17:04;;;;;;;26.23;8.73;;;;;;;;;;5032461;28;20044;-84
2021/11/09 08:19:29;;;;;;;25.50;8.40;;;;;;;;;;5032259;28;20018;-84
2021/11/09 08:21:55;;;;;;;28.03;8.70;;;;;;;;;;5031187;28;20018;-85
2021/11/09 08:24:21;;;;;;;27.27;9.13;;;;;;;;;;5064234;28;20534;-84
2021/11/09 08:26:47;;;;;;;29.03;8.47;;;;;;;;;;5030967;28;20040;-85
2021/11/09 08:29:13;;;;;;;27.93;8.73;;;;;;;;;;5032048;28;20026;-84
2021/11/09 08:31:42;;;;;;;38.03;9.70;;;;;;;;;;5030927;28;20479;-84
2021/11/09 08:34:08;;;;;;;27.77;9.30;;;;;;;;;;5032424;28;20435;-84
2021/11/09 08:36:33;;;;;;;28.83;9.17;;;;;;;;;;5032120;28;20040;-85
2021/11/09 08:39:00;;;;;;;25.70;9.50;;;;;;;;;;5030535;28;20034;-84
2021/11/09 08:41:37;;;;;;;24.53;7.77;;;;;;;;;;5032053;28;20036;-84
2021/11/09 08:45:06;;;;;;;27.43;8.83;;;;;;;;;;5030577;28;20037;-85
2021/11/09 08:46:58;;;;;;;26.27;8.03;;;;;;;;;;5021979;28;20037;-85
2021/11/09 08:49:25;;;;;;;23.97;8.17;;;;;;;;;;5030604;28;20067;-84
2021/11/09 08:51:51;;;;;;;23.10;8.33;;;;;;;;;;5032217;28;20049;-85
2021/11/09 08:54:21;;;;;;;19.37;8.07;;;;;;;;;;5031959;28;20037;-83
2021/11/09 09:04:48;;;;;;;33.53;9.67;;;;;;;;;;5033978;28;20031;-84
2021/11/09 09:07:13;;;;;;;27.77;9.43;;;;;;;;;;5034885;28;20453;-84
2021/11/09 09:09:38;;;;;;;23.37;7.33;;;;;;;;;;5034275;28;20116;-84
2021/11/09 09:12:04;;;;;;;22.97;7.93;;;;;;;;;;5035912;28;20449;-84
2021/11/09 09:14:30;;;;;;;32.90;8.73;;;;;;;;;;5035704;28;20033;-84
2021/11/09 09:16:56;;;;;;;31.17;9.10;;;;;;;;;;5035737;28;20021;-84
2021/11/09 09:19:26;;;;;;;26.03;9.47;;;;;;;;;;5034036;28;20025;-84
2021/11/09 09:22:03;;;;;;;26.03;9.10;;;;;;;;;;5034431;28;20033;-84
2021/11/09 09:54:06;;;;;;;20.08;6.65;;;;;;;;;;5034787;28;20068;-83
2021/11/09 09:56:44;;;;;;;20.65;7.53;;;;;;;;;;5033231;28;20036;-82
2021/11/09 09:59:11;;;;;;;28.90;8.23;;;;;;;;;;5031248;28;20104;-83
2021/11/09 10:01:36;;;;;;;28.95;7.25;;;;;;;;;;5032368;28;20048;-83
2021/11/09 10:04:01;;;;;;;29.43;7.23;;;;;;;;;;5033068;28;20112;-83
2021/11/09 10:06:42;;;;;;;25.33;7.95;;;;;;;;;;5034375;28;20039;-83
2021/11/09 10:09:08;;;;;;;14.25;5.97;;;;;;;;;;5059067;28;20483;-83
2021/11/09 10:11:38;;;;;;;21.17;6.22;;;;;;;;;;5066628;28;20017;-83
2021/11/09 10:14:04;;;;;;;36.13;6.20;;;;;;;;;;5033501;28;20033;-82
2021/11/09 10:16:30;;;;;;;36.75;7.00;;;;;;;;;;5032163;28;20044;-81
2021/11/09 10:18:55;;;;;;;34.03;8.77;;;;;;;;;;5066932;28;20022;-82
2021/11/09 10:21:31;;;;;;;26.02;5.90;;;;;;;;;;5034797;28;20022;-82
2021/11/09 10:23:56;;;;;;;21.83;5.13;;;;;;;;;;5066929;28;20409;-82
2021/11/09 10:26:24;;;;;;;28.27;8.80;;;;;;;;;;5034133;28;20021;-82
2021/11/09 10:28:49;;;;;;;27.83;7.35;;;;;;;;;;5033057;28;20018;-82
2021/11/09 10:31:17;;;;;;;31.52;7.75;;;;;;;;;;5034183;28;20029;-82
2021/11/09 10:33:49;;;;;;;21.38;7.78;;;;;;;;;;5032983;28;20036;-82
2021/11/09 10:36:26;;;;;;;21.23;5.65;;;;;;;;;;5034245;28;20036;-82
2021/11/09 10:38:51;;;;;;;27.33;6.93;;;;;;;;;;5032415;28;20033;-82
2021/11/09 10:41:16;;;;;;;23.90;6.30;;;;;;;;;;5066088;28;20750;-82
2021/11/09 10:43:42;;;;;;;24.67;6.18;;;;;;;;;;5033309;28;20036;-82
2021/11/09 10:46:21;;;;;;;17.77;5.65;;;;;;;;;;5033720;28;20029;-82
2021/11/09 10:48:46;;;;;;;19.42;5.10;;;;;;;;;;5033451;28;20468;-83
2021/11/09 10:51:12;;;;;;;17.50;5.32;;;;;;;;;;5033994;28;20025;-83
2021/11/09 10:53:44;;;;;;;9.93;1.83;;;;;;;;;;5032875;28;20032;-83
2021/11/09 10:59:11;;;;;;;8.82;2.97;;;;;;;;;;5033607;28;19909;-83
2021/11/09 11:04:36;;;;;;;16.52;4.10;;;;;;;;;;5032172;28;20028;-83
2021/11/09 11:07:05;;;;;;;9.70;2.90;;;;;;;;;;5064807;28;20366;-83
2021/11/09 11:09:30;;;;;;;13.52;3.00;;;;;;;;;;5032472;28;20453;-83
2021/11/09 11:11:59;;;;;;;12.88;4.18;;;;;;;;;;5065970;28;20028;-83
2021/11/09 11:14:25;;;;;;;16.00;3.85;;;;;;;;;;5033449;28;20090;-83
2021/11/09 11:16:54;;;;;;;23.23;6.32;;;;;;;;;;5034041;28;20047;-83
2021/11/09 11:19:23;;;;;;;20.10;5.15;;;;;;;;;;5033359;28;20034;-82
2021/11/09 11:21:49;;;;;;;5.95;1.90;;;;;;;;;;5033412;28;20097;-83
2021/11/09 11:24:15;;;;;;;8.40;2.00;;;;;;;;;;5032107;28;20116;-83
2021/11/09 11:26:41;;;;;;;13.32;4.03;;;;;;;;;;5033153;28;20021;-83
2021/11/09 11:29:07;;;;;;;18.17;5.63;;;;;;;;;;5065355;28;20021;-83
2021/11/09 11:31:33;;;;;;;19.58;5.13;;;;;;;;;;5031726;28;20017;-82
2021/11/09 11:33:59;;;;;;;13.25;3.30;;;;;;;;;;5026895;28;20021;-82
2021/11/09 11:36:24;;;;;;;12.02;4.22;;;;;;;;;;5033076;28;20037;-82
2021/11/09 11:38:51;;;;;;;19.40;4.18;;;;;;;;;;5031552;28;20025;-83
2021/11/09 11:41:18;;;;;;;19.73;3.88;;;;;;;;;;5032571;28;20116;-83
2021/11/09 11:43:43;;;;;;;21.73;4.35;;;;;;;;;;5033134;28;20021;-83
2021/11/09 11:46:09;;;;;;;27.20;4.57;;;;;;;;;;5031689;28;20025;-83
2021/11/09 11:48:53;;;;;;;12.32;3.97;;;;;;;;;;5064791;28;20029;-82
2021/11/09 11:51:18;;;;;;;20.20;3.88;;;;;;;;;;5030769;28;20022;-82
2021/11/09 11:53:44;;;;;;;25.52;4.05;;;;;;;;;;5031162;28;20021;-82
2021/11/09 11:56:12;;;;;;;11.73;3.38;;;;;;;;;;5030755;28;20461;-85
2021/11/09 11:58:38;;;;;;;17.58;3.28;;;;;;;;;;5064855;28;20484;-85
2021/11/09 12:01:03;;;;;;;14.68;3.60;;;;;;;;;;5029766;28;20078;-85
2021/11/09 12:03:29;;;;;;;11.57;2.38;;;;;;;;;;5063866;28;20337;-85
2021/11/09 12:05:58;;;;;;;7.22;2.10;;;;;;;;;;5030584;28;20124;-85
2021/11/09 12:08:43;;;;;;;11.60;2.63;;;;;;;;;;5031008;28;20021;-86
2021/11/09 12:11:35;;;;;;;16.73;2.05;;;;;;;;;;5025974;28;20021;-85
2021/11/09 12:14:01;;;;;;;14.57;2.72;;;;;;;;;;5064673;28;20021;-86
2021/11/09 12:16:42;;;;;;;20.67;3.00;;;;;;;;;;5030572;28;20083;-84
2021/11/09 12:19:07;;;;;;;20.65;2.92;;;;;;;;;;5031458;28;20025;-82
2021/11/09 12:21:35;;;;;;;11.77;2.80;;;;;;;;;;5031174;28;20029;-85
2021/11/09 12:24:08;;;;;;;15.90;3.13;;;;;;;;;;5030261;28;20025;-84
2021/11/09 12:26:40;;;;;;;4.75;1.55;;;;;;;;;;5031751;28;20033;-84
2021/11/09 12:29:26;;;;;;;11.82;1.67;;;;;;;;;;5030993;28;20481;-85
2021/11/09 12:31:51;;;;;;;4.80;1.63;;;;;;;;;;5029141;28;20036;-85
2021/11/09 12:34:16;;;;;;;4.75;1.45;;;;;;;;;;5035018;28;20013;-85
2021/11/09 12:36:42;;;;;;;11.07;2.13;;;;;;;;;;5030994;28;20028;-85
2021/11/09 12:39:18;;;;;;;19.33;3.33;;;;;;;;;;5030850;28;20029;-85
2021/11/09 12:41:52;;;;;;;15.65;2.03;;;;;;;;;;5030719;28;20025;-84
2021/11/09 12:44:31;;;;;;;16.83;2.60;;;;;;;;;;5030694;28;20388;-83
2021/11/09 12:47:07;;;;;;;12.70;2.22;;;;;;;;;;5063273;28;20025;-83
2021/11/09 12:49:37;;;;;;;10.60;2.72;;;;;;;;;;5063334;28;20763;-83
2021/11/09 12:52:02;;;;;;;12.98;2.15;;;;;;;;;;5023207;28;20405;-83
2021/11/09 12:54:29;;;;;;;9.38;2.05;;;;;;;;;;5030423;28;20152;-83
2021/11/09 12:57:02;;;;;;;15.23;2.80;;;;;;;;;;5062994;28;20029;-83
2021/11/09 12:59:41;;;;;;;8.88;2.00;;;;;;;;;;5030057;28;20477;-83
2021/11/09 13:09:53;;;;;;;10.50;1.95;;;;;;;;;;5031751;28;20048;-83
2021/11/09 13:12:23;;;;;;;9.48;1.83;;;;;;;;;;5030878;28;20032;-83
2021/11/09 13:14:50;;;;;;;11.77;2.05;;;;;;;;;;5030661;28;20087;-82
2021/11/09 13:17:20;;;;;;;13.82;2.42;;;;;;;;;;5031788;28;20045;-82
2021/11/09 13:19:47;;;;;;;15.68;2.42;;;;;;;;;;5030175;28;20053;-82
2021/11/09 13:22:19;;;;;;;14.57;2.20;;;;;;;;;;5030883;28;20018;-82
2021/11/09 13:24:55;;;;;;;18.95;2.20;;;;;;;;;;5031845;28;20021;-83
2021/11/09 13:27:32;;;;;;;15.85;2.55;;;;;;;;;;5064331;28;20052;-83
2021/11/09 13:30:05;;;;;;;14.35;3.13;;;;;;;;;;5031606;28;20013;-83
2021/11/09 13:32:31;;;;;;;21.95;2.53;;;;;;;;;;5064135;28;20018;-82
2021/11/09 13:34:56;;;;;;;11.63;2.20;;;;;;;;;;5030514;28;20087;-82
2021/11/09 13:37:22;;;;;;;8.90;1.63;;;;;;;;;;5064086;28;20542;-82
2021/11/09 13:39:57;;;;;;;14.85;2.78;;;;;;;;;;5063668;28;20026;-82
2021/11/09 13:42:23;;;;;;;10.30;2.35;;;;;;;;;;5027114;28;20029;-82
2021/11/09 13:44:48;;;;;;;14.30;2.85;;;;;;;;;;5062941;28;20151;-82
2021/11/09 13:47:14;;;;;;;14.35;2.72;;;;;;;;;;5030449;28;20025;-82
2021/11/09 13:49:40;;;;;;;13.32;2.50;;;;;;;;;;5063687;28;20020;-82
2021/11/09 13:52:05;;;;;;;18.20;3.05;;;;;;;;;;5035050;28;20033;-82
2021/11/09 13:54:35;;;;;;;10.85;2.15;;;;;;;;;;5033913;28;20451;-82
2021/11/09 13:57:01;;;;;;;17.50;2.78;;;;;;;;;;5034692;28;20021;-82
2021/11/09 13:59:28;;;;;;;16.95;2.67;;;;;;;;;;5031371;28;20040;-83
2021/11/09 14:10:13;;;;;;;14.82;2.53;;;;;;;;;;5034848;28;20032;-84
2021/11/09 14:17:42;;;;;;;6.03;1.52;;;;;;;;;;5035004;28;20026;-83
2021/11/09 14:20:15;;;;;;;13.75;2.40;;;;;;;;;;5033309;28;20025;-83
2021/11/09 14:22:40;;;;;;;11.38;1.60;;;;;;;;;;5034916;28;20018;-83
2021/11/09 14:25:07;;;;;;;14.52;1.75;;;;;;;;;;5029467;28;20017;-83
2021/11/09 14:27:36;;;;;;;13.38;2.03;;;;;;;;;;5033172;28;20067;-83
2021/11/09 14:30:03;;;;;;;17.23;2.60;;;;;;;;;;5030528;28;20030;-83
2021/11/09 14:32:47;;;;;;;12.07;2.60;;;;;;;;;;5034257;28;20041;-82
2021/11/09 14:37:53;;;;;;;13.32;2.55;;;;;;;;;;5034388;28;20013;-82
2021/11/09 14:40:19;;;;;;;9.48;1.85;;;;;;;;;;5031218;28;20017;-83
2021/11/09 14:47:56;;;;;;;17.48;2.47;;;;;;;;;;5034725;28;20053;-82
2021/11/09 14:50:35;;;;;;;6.80;2.05;;;;;;;;;;5034264;28;20076;-83
2021/11/09 14:53:09;;;;;;;11.93;2.40;;;;;;;;;;5031494;28;20023;-82
2021/11/09 14:56:10;;;;;;;16.85;2.20;;;;;;;;;;5034380;28;20031;-83
2021/11/09 14:58:29;;;;;;;15.38;2.22;;;;;;;;;;5032195;28;20030;-83
2021/11/09 15:01:01;;;;;;;15.38;2.17;;;;;;;;;;5033003;28;20519;-82
2021/11/09 15:03:27;;;;;;;15.10;2.50;;;;;;;;;;5030289;28;20523;-83
2021/11/09 15:05:55;;;;;;;12.73;2.13;;;;;;;;;;5032677;28;20048;-82
2021/11/09 15:08:29;;;;;;;13.20;2.15;;;;;;;;;;5033996;28;20010;-82
2021/11/09 15:11:10;;;;;;;12.45;2.50;;;;;;;;;;5066290;28;20097;-83
2021/11/09 15:25:01;;;;;;;14.65;2.03;;;;;;;;;;5064930;28;20568;-82
2021/11/09 15:25:42;;;;;;;14.98;2.42;;;;;;;;;;5033714;28;20113;-82
2021/11/09 15:33:16;;;;;;;13.90;2.70;;;;;;;;;;5033606;28;20049;-82
2021/11/09 15:36:30;;;;;;;;;;;;;;;;;;5030274;28;20030;-82
2021/11/09 15:38:30;;;;;;;14.25;3.03;;;;;;;;;;5023117;28;19909;-82
2021/11/09 15:40:55;;;;;;;14.35;3.00;;;;;;;;;;5023029;28;20018;-81
2021/11/09 15:43:21;;;;;;;17.00;2.80;;;;;;;;;;5059377;28;20025;-82
2021/11/09 15:45:46;;;;;;;14.48;2.70;;;;;;;;;;5031507;28;20031;-82
2021/11/09 15:48:11;;;;;;;12.90;2.85;;;;;;;;;;5032570;28;20022;-82
2021/11/09 15:50:37;;;;;;;16.55;3.30;;;;;;;;;;5031808;28;20029;-83
2021/11/09 15:53:03;;;;;;;13.57;3.05;;;;;;;;;;5031976;28;20473;-82
2021/11/09 15:55:28;;;;;;;14.75;3.40;;;;;;;;;;5033235;28;20029;-82
2021/11/09 15:57:53;;;;;;;12.70;2.88;;;;;;;;;;5032043;28;20041;-82
2021/11/09 16:00:18;;;;;;;18.40;3.67;;;;;;;;;;5032053;28;20029;-82
2021/11/09 16:02:45;;;;;;;10.38;2.75;;;;;;;;;;5031510;28;20021;-83
2021/11/09 16:05:11;;;;;;;18.17;3.25;;;;;;;;;;5064855;28;20033;-82
2021/11/09 16:07:36;;;;;;;14.13;3.35;;;;;;;;;;5064945;28;20381;-82
2021/11/09 16:10:03;;;;;;;19.65;3.65;;;;;;;;;;5064787;28;20025;-82
2021/11/09 16:12:28;;;;;;;22.23;5.00;;;;;;;;;;5033058;28;20032;-82
2021/11/09 16:14:54;;;;;;;20.92;5.68;;;;;;;;;;5030522;28;20025;-82
2021/11/09 16:17:20;;;;;;;25.08;7.15;;;;;;;;;;5031938;28;20025;-82
2021/11/09 16:19:47;;;;;;;22.77;6.00;;;;;;;;;;5031220;28;20029;-82
2021/11/09 16:22:14;;;;;;;17.75;5.60;;;;;;;;;;5031534;28;20112;-82
2021/11/09 16:24:39;;;;;;;17.70;4.75;;;;;;;;;;5032797;28;20025;-82
2021/11/09 16:27:05;;;;;;;15.18;4.78;;;;;;;;;;5032470;28;20064;-82
2021/11/09 16:29:49;;;;;;;23.73;5.13;;;;;;;;;;5031618;28;20531;-82
2021/11/09 16:32:14;;;;;;;19.10;5.15;;;;;;;;;;5031174;28;20022;-82
2021/11/09 16:34:43;;;;;;;22.20;4.68;;;;;;;;;;5031528;28;20087;-82
2021/11/09 16:37:08;;;;;;;16.90;5.47;;;;;;;;;;5031202;28;20439;-82
2021/11/09 16:39:39;;;;;;;24.67;4.90;;;;;;;;;;5031295;28;20022;-82
2021/11/09 16:42:05;;;;;;;19.58;6.05;;;;;;;;;;5063969;28;20496;-82
2021/11/09 16:44:30;;;;;;;20.33;5.80;;;;;;;;;;5032359;28;20025;-81
2021/11/09 16:46:57;;;;;;;23.45;6.20;;;;;;;;;;5063432;28;20063;-81
2021/11/09 16:52:12;;;;;;;19.17;6.03;;;;;;;;;;5033222;28;20025;-81
2021/11/09 16:54:41;;;;;;;20.95;6.57;;;;;;;;;;5036513;28;20063;-81
2021/11/09 17:00:30;;;;;;;27.80;5.97;;;;;;;;;;5032173;28;20389;-82
2021/11/09 17:06:09;;;;;;;29.17;6.43;;;;;;;;;;5031879;28;20029;-82
2021/11/09 18:14:15;;;;;;;33.97;11.00;;;;;;;;;;5034931;28;20083;-85
2021/11/09 18:21:41;;;;;;;29.03;10.47;;;;;;;;;;5032361;28;20021;-85
2021/11/09 18:24:07;;;;;;;27.37;10.47;;;;;;;;;;5033874;28;20021;-84
2021/11/09 18:26:32;;;;;;;25.13;10.33;;;;;;;;;;5034620;28;20380;-85
2021/11/09 18:28:57;;;;;;;26.80;9.37;;;;;;;;;;5031423;28;20044;-85
2021/11/09 18:31:23;;;;;;;26.80;9.77;;;;;;;;;;5040284;28;20021;-85
2021/11/09 18:33:48;;;;;;;29.70;9.30;;;;;;;;;;5032103;28;20022;-85
2021/11/09 18:36:15;;;;;;;25.50;10.57;;;;;;;;;;5031956;28;20028;-85
2021/11/09 18:38:40;;;;;;;26.03;9.97;;;;;;;;;;5032517;28;20025;-85
2021/11/09 18:41:05;;;;;;;23.27;9.33;;;;;;;;;;5032748;28;20052;-86
2021/11/09 18:43:32;;;;;;;27.67;9.70;;;;;;;;;;5033998;28;20021;-85
2021/11/09 18:45:57;;;;;;;23.27;9.47;;;;;;;;;;5033078;28;20140;-86